createdAt,value
2022-10-04T02:05:37.798Z,100444.28
2022-10-04T02:07:41.993Z,100457.41
2022-10-04T02:09:46.601Z,100483.50
2022-10-04T02:11:54.191Z,100466.97
2022-10-04T02:13:56.424Z,100470.28
2022-10-04T02:15:59.565Z,100457.44
2022-10-04T02:18:02.168Z,100556.09
2022-10-04T02:20:11.981Z,100587.72
2022-10-04T02:22:14.052Z,100506.06
2022-10-04T02:24:16.996Z,100446.19
2022-10-04T02:26:18.676Z,100535.78
2022-10-04T02:28:20.341Z,100556.88
2022-10-04T05:05:34.713Z,100476.53
2022-10-04T05:07:36.394Z,100515.22
2022-10-04T05:09:38.676Z,100521.34
2022-10-04T05:11:41.263Z,100484.78
2022-10-04T05:13:43.190Z,100579.66
2022-10-04T05:15:45.138Z,100545.59
2022-10-04T05:17:46.844Z,100542.63
2022-10-04T05:19:49.338Z,100538.06
2022-10-04T05:21:54.490Z,100477.19
2022-10-04T05:23:58.548Z,100481.09
2022-10-04T05:26:02.456Z,100590.16
2022-10-04T15:13:10.496Z,100343.16
2022-10-04T15:15:16.844Z,100351.00
2022-10-04T15:17:33.595Z,100239.16
2022-10-04T15:20:16.648Z,100214.69
2022-10-04T15:22:29.630Z,100282.97
2022-10-04T15:24:51.264Z,100238.25
2022-10-04T15:27:40.832Z,100188.69
2022-10-04T15:30:04.189Z,100155.03
2022-10-04T15:32:31.878Z,100226.88
2022-10-04T17:44:17.000Z,100180.28
2022-10-04T17:46:41.491Z,100193.00
2022-10-04T17:49:22.760Z,100218.38
2022-10-04T17:51:52.480Z,100232.56
2022-10-04T17:54:19.712Z,100252.00
2022-10-04T17:56:40.760Z,100184.16
2022-10-04T17:58:50.937Z,100144.63
2022-10-04T18:01:08.051Z,100151.75
2022-10-04T18:03:19.297Z,100196.84
2022-10-04T18:05:30.051Z,100207.41
